Time;durP1;ratioP1;P1;durP2;ratioP2;P2;SDS_P1;SDS_P2;PMS_P1;PMS_P2;Temp;Humidity;BMP_temperature;BMP_pressure;BME280_temperature;BME280_humidity;BME280_pressure;Samples;Min_cycle;Max_cycle;Signal;HPM_P1;HPM_P2
2021/09/29 00:02:10;;;;;;;4.43;2.35;;;;;;;;;;5095826;28;20457;-81
2021/09/29 00:04:35;;;;;;;6.05;2.83;;;;;;;;;;5094885;28;20055;-82
2021/09/29 00:07:01;;;;;;;8.03;2.70;;;;;;;;;;5095585;28;20111;-82
2021/09/29 00:09:26;;;;;;;5.37;2.73;;;;;;;;;;5096197;28;20404;-83
2021/09/29 00:11:52;;;;;;;5.07;2.95;;;;;;;;;;5095378;28;20358;-81
2021/09/29 00:14:17;;;;;;;3.00;2.40;;;;;;;;;;5095781;28;20430;-82
2021/09/29 00:16:42;;;;;;;4.53;2.80;;;;;;;;;;5095529;28;20030;-82
2021/09/29 00:19:08;;;;;;;7.43;3.65;;;;;;;;;;5095714;28;20106;-82
2021/09/29 00:21:33;;;;;;;4.47;2.83;;;;;;;;;;5095545;28;20117;-82
2021/09/29 00:23:58;;;;;;;7.40;3.08;;;;;;;;;;5095495;28;20066;-82
2021/09/29 00:26:24;;;;;;;4.07;2.67;;;;;;;;;;5095476;28;20034;-81
2021/09/29 00:28:49;;;;;;;5.80;2.50;;;;;;;;;;5094468;28;20024;-82
2021/09/29 00:33:50;;;;;;;6.07;2.80;;;;;;;;;;5096413;28;20055;-82
2021/09/29 00:36:16;;;;;;;4.82;2.95;;;;;;;;;;5095458;28;20041;-81
2021/09/29 00:38:41;;;;;;;5.72;2.80;;;;;;;;;;5097301;28;20326;-83
2021/09/29 00:41:07;;;;;;;7.32;3.42;;;;;;;;;;5101385;28;20093;-82
2021/09/29 00:43:32;;;;;;;5.40;2.92;;;;;;;;;;5094114;28;20020;-82
2021/09/29 00:45:57;;;;;;;5.10;3.30;;;;;;;;;;5094035;28;20532;-82
2021/09/29 00:48:23;;;;;;;9.20;3.10;;;;;;;;;;5095140;28;20053;-82
2021/09/29 00:50:48;;;;;;;6.95;3.40;;;;;;;;;;5095212;28;20042;-82
2021/09/29 00:53:14;;;;;;;6.80;3.40;;;;;;;;;;5094125;28;20464;-81
2021/09/29 00:55:39;;;;;;;7.70;3.58;;;;;;;;;;5095228;28;20062;-82
2021/09/29 00:58:04;;;;;;;4.90;3.17;;;;;;;;;;5095111;28;20020;-82
2021/09/29 01:00:30;;;;;;;6.53;3.30;;;;;;;;;;5094991;28;20390;-83
2021/09/29 01:02:56;;;;;;;6.78;3.60;;;;;;;;;;5093931;28;20036;-81
2021/09/29 01:05:21;;;;;;;5.63;3.50;;;;;;;;;;5095497;28;20035;-82
2021/09/29 01:07:59;;;;;;;7.35;3.42;;;;;;;;;;5094951;28;20110;-83
2021/09/29 01:10:44;;;;;;;8.18;3.30;;;;;;;;;;5094136;28;20073;-82
2021/09/29 01:13:27;;;;;;;7.15;3.60;;;;;;;;;;5094948;28;20020;-82
2021/09/29 01:16:01;;;;;;;5.88;3.33;;;;;;;;;;5093819;28;20353;-81
2021/09/29 01:18:30;;;;;;;7.97;3.47;;;;;;;;;;5095322;28;20020;-81
2021/09/29 01:21:04;;;;;;;6.22;3.13;;;;;;;;;;5093813;28;20393;-81
2021/09/29 01:23:52;;;;;;;7.45;3.47;;;;;;;;;;5093891;28;20035;-83
2021/09/29 01:26:20;;;;;;;6.43;3.20;;;;;;;;;;5098752;28;20031;-82
2021/09/29 01:28:52;;;;;;;5.47;3.08;;;;;;;;;;5099048;28;20038;-82
2021/09/29 01:31:19;;;;;;;6.38;3.10;;;;;;;;;;5099147;28;20519;-82
2021/09/29 01:33:45;;;;;;;6.63;3.53;;;;;;;;;;5097776;28;20024;-82
2021/09/29 01:36:11;;;;;;;7.00;3.40;;;;;;;;;;5097600;28;20032;-82
2021/09/29 01:38:39;;;;;;;4.77;2.90;;;;;;;;;;5097615;28;20446;-82
2021/09/29 01:41:05;;;;;;;7.25;3.00;;;;;;;;;;5098789;28;20024;-81
2021/09/29 01:43:32;;;;;;;5.28;3.00;;;;;;;;;;5098550;28;20017;-82
2021/09/29 01:45:57;;;;;;;5.65;3.17;;;;;;;;;;5098135;28;20134;-82
2021/09/29 01:48:23;;;;;;;5.30;2.57;;;;;;;;;;5098332;28;20145;-82
2021/09/29 01:50:52;;;;;;;5.93;2.90;;;;;;;;;;5098166;28;20028;-82
2021/09/29 01:53:18;;;;;;;3.88;2.53;;;;;;;;;;5097381;28;20043;-82
2021/09/29 01:55:44;;;;;;;5.60;2.70;;;;;;;;;;5097084;28;20032;-81
2021/09/29 01:58:10;;;;;;;3.40;2.55;;;;;;;;;;5097004;28;20032;-81
2021/09/29 02:00:39;;;;;;;6.40;2.63;;;;;;;;;;5098501;28;20396;-81
2021/09/29 02:03:04;;;;;;;3.75;2.90;;;;;;;;;;5096885;28;20028;-82
2021/09/29 02:05:34;;;;;;;4.28;2.63;;;;;;;;;;5097996;28;20043;-81
2021/09/29 02:08:01;;;;;;;5.47;2.90;;;;;;;;;;5098094;28;20035;-82
2021/09/29 02:10:27;;;;;;;3.97;2.60;;;;;;;;;;5097912;28;20028;-83
2021/09/29 02:12:53;;;;;;;6.05;3.35;;;;;;;;;;5098477;28;20119;-81
2021/09/29 02:15:18;;;;;;;5.97;2.87;;;;;;;;;;5098047;28;20165;-81
2021/09/29 02:17:44;;;;;;;5.18;2.70;;;;;;;;;;5096688;28;20411;-81
2021/09/29 02:20:11;;;;;;;5.25;2.42;;;;;;;;;;5096855;28;20137;-82
2021/09/29 02:22:38;;;;;;;5.20;2.50;;;;;;;;;;5098002;28;20155;-81
2021/09/29 02:25:05;;;;;;;5.63;2.63;;;;;;;;;;5099781;28;20394;-83
2021/09/29 02:27:30;;;;;;;5.25;2.78;;;;;;;;;;5099225;28;20112;-83
2021/09/29 02:29:55;;;;;;;5.83;3.30;;;;;;;;;;5099438;28;20055;-81
2021/09/29 02:32:20;;;;;;;6.87;2.67;;;;;;;;;;5098566;28;20452;-82
2021/09/29 02:34:46;;;;;;;5.10;2.42;;;;;;;;;;5097425;28;20028;-82
2021/09/29 02:37:11;;;;;;;6.50;2.58;;;;;;;;;;5096534;28;20020;-81
2021/09/29 02:39:36;;;;;;;5.32;3.08;;;;;;;;;;5096496;28;20529;-81
2021/09/29 02:42:04;;;;;;;4.97;2.53;;;;;;;;;;5096181;28;20027;-81
2021/09/29 02:44:29;;;;;;;5.40;2.53;;;;;;;;;;5096518;28;20024;-81
2021/09/29 02:46:55;;;;;;;6.72;3.55;;;;;;;;;;5096962;28;20051;-83
2021/09/29 02:49:20;;;;;;;4.43;3.23;;;;;;;;;;5098035;28;20019;-80
2021/09/29 02:51:45;;;;;;;4.97;3.08;;;;;;;;;;5098841;28;20028;-82
2021/09/29 02:54:10;;;;;;;4.13;2.65;;;;;;;;;;5097183;28;20114;-81
2021/09/29 02:56:36;;;;;;;4.57;2.65;;;;;;;;;;5096550;28;20056;-82
2021/09/29 02:59:02;;;;;;;4.28;2.30;;;;;;;;;;5097822;28;20442;-81
2021/09/29 03:01:27;;;;;;;5.53;2.42;;;;;;;;;;5097295;28;20052;-81
2021/09/29 03:03:53;;;;;;;4.78;2.65;;;;;;;;;;5097090;28;20050;-81
2021/09/29 03:06:18;;;;;;;6.77;2.40;;;;;;;;;;5096691;28;20027;-82
2021/09/29 03:08:44;;;;;;;4.43;2.38;;;;;;;;;;5096781;28;20020;-82
2021/09/29 03:11:10;;;;;;;5.75;2.33;;;;;;;;;;5095829;28;20016;-82
2021/09/29 03:13:35;;;;;;;6.22;2.60;;;;;;;;;;5095604;28;20028;-82
2021/09/29 03:16:01;;;;;;;6.70;2.20;;;;;;;;;;5096432;28;20042;-81
2021/09/29 03:18:26;;;;;;;5.10;2.17;;;;;;;;;;5095606;28;20044;-81
2021/09/29 03:20:51;;;;;;;4.72;2.40;;;;;;;;;;5095312;28;20032;-81
2021/09/29 03:23:17;;;;;;;7.95;2.63;;;;;;;;;;5096333;28;20039;-82
2021/09/29 03:25:42;;;;;;;4.25;2.30;;;;;;;;;;5096267;28;20028;-82
2021/09/29 03:28:08;;;;;;;5.53;2.60;;;;;;;;;;5096306;28;20020;-81
2021/09/29 03:30:33;;;;;;;4.93;2.77;;;;;;;;;;5095372;28;20023;-81
2021/09/29 03:32:59;;;;;;;5.17;2.10;;;;;;;;;;5096174;28;20031;-81
2021/09/29 03:35:27;;;;;;;3.47;2.10;;;;;;;;;;5096161;28;20065;-81
2021/09/29 03:37:52;;;;;;;5.50;2.20;;;;;;;;;;5096060;28;20028;-81
2021/09/29 03:40:18;;;;;;;6.05;2.33;;;;;;;;;;5096395;28;20102;-82
2021/09/29 03:42:44;;;;;;;5.18;2.35;;;;;;;;;;5096000;28;20032;-82
2021/09/29 03:45:11;;;;;;;5.20;2.43;;;;;;;;;;5096278;28;20028;-81
2021/09/29 03:47:40;;;;;;;6.75;2.45;;;;;;;;;;5095533;28;20351;-82
2021/09/29 03:50:06;;;;;;;4.80;2.47;;;;;;;;;;5096023;28;20051;-81
2021/09/29 03:52:31;;;;;;;4.40;2.35;;;;;;;;;;5094991;28;20081;-81
2021/09/29 03:54:56;;;;;;;7.43;2.33;;;;;;;;;;5095939;28;20062;-82
2021/09/29 03:57:22;;;;;;;4.32;2.42;;;;;;;;;;5096168;28;20023;-82
2021/09/29 03:59:47;;;;;;;4.93;2.67;;;;;;;;;;5096020;28;20020;-82
2021/09/29 04:02:12;;;;;;;5.13;2.75;;;;;;;;;;5095026;28;20024;-82
2021/09/29 04:04:38;;;;;;;5.38;2.80;;;;;;;;;;5095836;28;20089;-82
2021/09/29 04:07:03;;;;;;;4.93;2.33;;;;;;;;;;5094678;28;20206;-83
2021/09/29 04:09:29;;;;;;;6.40;3.08;;;;;;;;;;5095474;28;20043;-81
2021/09/29 04:11:54;;;;;;;4.30;2.57;;;;;;;;;;5095476;28;20024;-82
2021/09/29 04:14:20;;;;;;;5.47;2.17;;;;;;;;;;5094560;28;20078;-82
2021/09/29 04:16:47;;;;;;;4.70;2.33;;;;;;;;;;5094378;28;20041;-81
2021/09/29 04:19:13;;;;;;;7.93;2.40;;;;;;;;;;5095507;28;20384;-82
2021/09/29 04:21:38;;;;;;;5.30;2.37;;;;;;;;;;5095341;28;20457;-82
2021/09/29 04:24:04;;;;;;;4.05;2.58;;;;;;;;;;5095661;28;20077;-82
2021/09/29 04:26:29;;;;;;;5.00;2.60;;;;;;;;;;5095247;28;20058;-82
2021/09/29 04:28:55;;;;;;;7.40;2.80;;;;;;;;;;5096843;28;20031;-82
2021/09/29 04:31:20;;;;;;;6.93;3.00;;;;;;;;;;5094683;28;20077;-82
2021/09/29 04:33:45;;;;;;;5.70;2.97;;;;;;;;;;5096052;28;20032;-82
2021/09/29 04:36:11;;;;;;;7.07;3.47;;;;;;;;;;5095554;28;20152;-82
2021/09/29 04:38:36;;;;;;;8.27;3.80;;;;;;;;;;5096008;28;20024;-82
2021/09/29 04:41:01;;;;;;;5.05;3.40;;;;;;;;;;5095843;28;20392;-83
2021/09/29 04:43:27;;;;;;;7.85;3.45;;;;;;;;;;5094730;28;20039;-83
2021/09/29 04:45:52;;;;;;;5.78;3.83;;;;;;;;;;5095866;28;20024;-83
2021/09/29 04:48:18;;;;;;;7.78;4.03;;;;;;;;;;5095304;28;20062;-81
2021/09/29 04:50:44;;;;;;;5.63;3.60;;;;;;;;;;5095229;28;20085;-81
2021/09/29 04:53:09;;;;;;;6.37;3.27;;;;;;;;;;5094083;28;20043;-81
2021/09/29 04:55:35;;;;;;;5.70;3.28;;;;;;;;;;5095131;28;20093;-83
2021/09/29 04:58:03;;;;;;;6.72;3.20;;;;;;;;;;5095115;28;20023;-82
2021/09/29 05:00:30;;;;;;;6.32;3.40;;;;;;;;;;5098550;28;20060;-83
2021/09/29 05:02:57;;;;;;;6.07;3.90;;;;;;;;;;5099116;28;20392;-82
2021/09/29 05:05:22;;;;;;;6.43;3.60;;;;;;;;;;5099670;28;20036;-82
2021/09/29 05:07:51;;;;;;;5.63;3.40;;;;;;;;;;5099405;28;20444;-82
2021/09/29 05:10:38;;;;;;;4.70;3.08;;;;;;;;;;5099460;28;20066;-82
2021/09/29 05:13:08;;;;;;;6.10;3.25;;;;;;;;;;5099754;28;20024;-82
2021/09/29 05:15:33;;;;;;;4.80;3.35;;;;;;;;;;5100025;28;20107;-82
2021/09/29 05:17:58;;;;;;;7.00;4.05;;;;;;;;;;5099796;28;20433;-82
2021/09/29 05:20:23;;;;;;;6.93;3.55;;;;;;;;;;5098796;28;20024;-82
2021/09/29 05:22:49;;;;;;;4.45;3.10;;;;;;;;;;5099623;28;20042;-82
2021/09/29 05:25:14;;;;;;;4.97;2.65;;;;;;;;;;5098247;28;20024;-82
2021/09/29 05:27:39;;;;;;;6.68;3.75;;;;;;;;;;5099096;28;20028;-82
2021/09/29 05:30:05;;;;;;;7.25;3.45;;;;;;;;;;5098883;28;20020;-81
2021/09/29 05:32:31;;;;;;;9.33;3.50;;;;;;;;;;5099117;28;20081;-82
2021/09/29 05:34:56;;;;;;;5.85;3.15;;;;;;;;;;5100595;28;20024;-81
2021/09/29 05:37:21;;;;;;;9.90;3.75;;;;;;;;;;5100682;28;20123;-81
2021/09/29 05:39:47;;;;;;;5.83;3.27;;;;;;;;;;5098992;28;20368;-82
2021/09/29 05:42:12;;;;;;;7.93;3.50;;;;;;;;;;5098296;28;20399;-82
2021/09/29 05:44:39;;;;;;;6.17;3.33;;;;;;;;;;5098322;28;20031;-82
2021/09/29 05:47:05;;;;;;;5.47;3.50;;;;;;;;;;5098272;28;20043;-83
2021/09/29 05:49:31;;;;;;;7.97;3.22;;;;;;;;;;5098425;28;20122;-82
2021/09/29 05:51:56;;;;;;;5.28;3.63;;;;;;;;;;5098709;28;20059;-82
2021/09/29 05:54:21;;;;;;;6.82;3.72;;;;;;;;;;5098271;28;20484;-81
2021/09/29 05:56:47;;;;;;;10.38;4.32;;;;;;;;;;5098351;28;20027;-82
2021/09/29 05:59:13;;;;;;;5.60;4.10;;;;;;;;;;5098721;28;20456;-82
2021/09/29 06:01:38;;;;;;;9.40;4.00;;;;;;;;;;5098337;28;20655;-82
2021/09/29 06:04:04;;;;;;;6.82;4.28;;;;;;;;;;5098624;28;20060;-83
2021/09/29 06:06:29;;;;;;;10.02;4.25;;;;;;;;;;5098357;28;20024;-82
2021/09/29 06:08:55;;;;;;;10.77;3.97;;;;;;;;;;5098478;28;20095;-83
2021/09/29 06:11:20;;;;;;;6.18;3.70;;;;;;;;;;5097659;28;20028;-82
2021/09/29 06:13:47;;;;;;;10.00;3.92;;;;;;;;;;5098408;28;20027;-83
2021/09/29 06:16:12;;;;;;;7.18;3.88;;;;;;;;;;5098653;28;20028;-84
2021/09/29 06:18:39;;;;;;;6.97;3.90;;;;;;;;;;5098418;28;20038;-83
2021/09/29 06:21:06;;;;;;;8.07;3.75;;;;;;;;;;5096788;28;20040;-81
2021/09/29 06:23:32;;;;;;;10.95;4.22;;;;;;;;;;5096837;28;20032;-84
2021/09/29 06:25:57;;;;;;;6.93;3.88;;;;;;;;;;5097781;28;20381;-83
2021/09/29 06:28:22;;;;;;;7.32;3.65;;;;;;;;;;5096873;28;20028;-82
2021/09/29 06:30:48;;;;;;;6.63;3.55;;;;;;;;;;5098388;28;20024;-83
2021/09/29 06:33:14;;;;;;;6.03;3.60;;;;;;;;;;5096798;28;20119;-83
2021/09/29 06:35:40;;;;;;;10.73;4.68;;;;;;;;;;5098064;28;20507;-83
2021/09/29 06:38:06;;;;;;;11.52;3.30;;;;;;;;;;5097554;28;20074;-83
2021/09/29 06:40:31;;;;;;;7.15;2.88;;;;;;;;;;5097257;28;20085;-82
2021/09/29 06:42:58;;;;;;;5.25;2.88;;;;;;;;;;5096397;28;20024;-81
2021/09/29 06:45:23;;;;;;;6.47;3.03;;;;;;;;;;5096464;28;20028;-82
2021/09/29 06:47:49;;;;;;;9.77;3.50;;;;;;;;;;5097232;28;20059;-82
2021/09/29 06:50:17;;;;;;;5.35;3.20;;;;;;;;;;5097183;28;20505;-82
2021/09/29 06:52:43;;;;;;;6.22;4.10;;;;;;;;;;5097610;28;20026;-82
2021/09/29 06:55:09;;;;;;;7.60;3.00;;;;;;;;;;5098014;28;20088;-83
2021/09/29 06:57:35;;;;;;;7.45;3.63;;;;;;;;;;5097911;28;20028;-83
2021/09/29 07:00:01;;;;;;;7.38;3.10;;;;;;;;;;5096895;28;20066;-82
2021/09/29 07:02:26;;;;;;;6.07;2.58;;;;;;;;;;5096047;28;20076;-81
2021/09/29 07:04:52;;;;;;;5.72;2.78;;;;;;;;;;5097303;28;20043;-82
2021/09/29 07:07:17;;;;;;;8.10;3.23;;;;;;;;;;5096817;28;20024;-82
2021/09/29 07:09:42;;;;;;;4.83;2.57;;;;;;;;;;5096931;28;20035;-82
2021/09/29 07:12:08;;;;;;;6.07;2.47;;;;;;;;;;5098058;28;20369;-81
2021/09/29 07:14:34;;;;;;;3.37;1.80;;;;;;;;;;5096886;28;20085;-82
2021/09/29 07:17:00;;;;;;;4.13;1.90;;;;;;;;;;5095645;28;20032;-82
2021/09/29 07:19:26;;;;;;;4.85;1.88;;;;;;;;;;5096675;28;20396;-83
2021/09/29 07:21:52;;;;;;;7.20;1.70;;;;;;;;;;5094580;28;20057;-84
2021/09/29 07:24:17;;;;;;;5.50;2.03;;;;;;;;;;5097031;28;20024;-83
2021/09/29 07:26:42;;;;;;;5.17;1.60;;;;;;;;;;5096969;28;20036;-83
2021/09/29 07:29:10;;;;;;;3.80;1.47;;;;;;;;;;5096875;28;20056;-84
2021/09/29 07:31:35;;;;;;;4.60;1.38;;;;;;;;;;5097076;28;20364;-84
2021/09/29 07:34:01;;;;;;;4.47;1.20;;;;;;;;;;5097079;28;20092;-84
2021/09/29 07:36:26;;;;;;;3.73;1.37;;;;;;;;;;5096870;28;20027;-85
2021/09/29 07:38:52;;;;;;;2.57;1.20;;;;;;;;;;5095792;28;20039;-84
2021/09/29 07:41:17;;;;;;;6.37;1.33;;;;;;;;;;5096931;28;20027;-85
2021/09/29 07:43:42;;;;;;;2.73;1.10;;;;;;;;;;5095827;28;20464;-84
2021/09/29 07:46:08;;;;;;;4.50;1.20;;;;;;;;;;5096590;28;20048;-85
2021/09/29 07:48:33;;;;;;;3.87;1.63;;;;;;;;;;5096113;28;20035;-84
2021/09/29 07:51:01;;;;;;;5.88;1.42;;;;;;;;;;5096742;28;20441;-85
2021/09/29 07:53:27;;;;;;;5.68;2.28;;;;;;;;;;5096085;28;20119;-86
2021/09/29 07:55:54;;;;;;;4.53;2.35;;;;;;;;;;5096877;28;20063;-86
2021/09/29 07:58:20;;;;;;;4.93;1.88;;;;;;;;;;5096719;28;20099;-86
2021/09/29 08:00:46;;;;;;;3.80;0.90;;;;;;;;;;5096596;28;20035;-85
2021/09/29 08:03:11;;;;;;;2.73;1.00;;;;;;;;;;5096855;28;20034;-84
2021/09/29 08:05:37;;;;;;;4.53;1.10;;;;;;;;;;5096611;28;20028;-84
2021/09/29 08:08:02;;;;;;;4.73;0.80;;;;;;;;;;5095234;28;20024;-85
2021/09/29 08:10:27;;;;;;;4.47;0.87;;;;;;;;;;5095366;28;20084;-85
2021/09/29 08:12:53;;;;;;;4.97;0.93;;;;;;;;;;5096180;28;20031;-84
2021/09/29 08:15:18;;;;;;;3.13;1.20;;;;;;;;;;5096473;28;20024;-84
2021/09/29 08:17:45;;;;;;;4.70;0.90;;;;;;;;;;5095449;28;20016;-84
2021/09/29 08:20:12;;;;;;;5.57;2.28;;;;;;;;;;5096116;28;20031;-84
2021/09/29 08:22:39;;;;;;;4.10;1.00;;;;;;;;;;5096832;28;20149;-84
2021/09/29 08:25:43;;;;;;;4.32;0.88;;;;;;;;;;5096973;28;20050;-85
2021/09/29 08:36:30;;;;;;;3.92;0.90;;;;;;;;;;5092012;28;20058;-84
2021/09/29 08:38:59;;;;;;;3.45;0.82;;;;;;;;;;5096584;28;20032;-85
2021/09/29 08:44:05;;;;;;;6.70;1.30;;;;;;;;;;5098018;28;20028;-87
2021/09/29 08:46:44;;;;;;;6.25;0.90;;;;;;;;;;5096996;28;20546;-86
2021/09/29 08:49:20;;;;;;;6.38;1.10;;;;;;;;;;5096106;28;20039;-87
2021/09/29 08:54:47;;;;;;;3.10;1.00;;;;;;;;;;5096210;28;19950;-86
2021/09/29 09:16:32;;;;;;;2.63;0.80;;;;;;;;;;5097918;28;20539;-86
2021/09/29 09:19:03;;;;;;;4.68;1.15;;;;;;;;;;5099540;28;20043;-86
2021/09/29 09:21:31;;;;;;;4.30;1.10;;;;;;;;;;5103728;28;20055;-85
2021/09/29 09:23:58;;;;;;;4.25;0.90;;;;;;;;;;5104476;28;20032;-86
2021/09/29 09:26:25;;;;;;;5.03;1.13;;;;;;;;;;5098495;28;20028;-86
2021/09/29 09:29:05;;;;;;;4.10;0.98;;;;;;;;;;5095556;28;20047;-85
2021/09/29 09:31:31;;;;;;;3.22;1.17;;;;;;;;;;5096083;28;20373;-88
2021/09/29 09:34:00;;;;;;;4.78;0.70;;;;;;;;;;5099347;28;20024;-88
2021/09/29 09:36:49;;;;;;;5.38;0.85;;;;;;;;;;5108052;28;20075;-86
2021/09/29 09:39:23;;;;;;;5.38;1.58;;;;;;;;;;5102120;28;20034;-85
2021/09/29 09:41:55;;;;;;;6.32;0.93;;;;;;;;;;5099590;28;20094;-85
2021/09/29 09:44:29;;;;;;;3.88;1.20;;;;;;;;;;5102265;28;20040;-84
2021/09/29 09:47:00;;;;;;;5.72;0.90;;;;;;;;;;5108306;28;20047;-87
2021/09/29 09:49:26;;;;;;;4.85;0.82;;;;;;;;;;5105529;28;20031;-85
2021/09/29 09:51:54;;;;;;;5.20;1.20;;;;;;;;;;5106498;28;20012;-88
2021/09/29 09:54:19;;;;;;;7.78;0.80;;;;;;;;;;5109448;28;20035;-87
2021/09/29 09:56:53;;;;;;;4.57;1.17;;;;;;;;;;5106030;28;20028;-87
2021/09/29 09:59:18;;;;;;;4.85;0.93;;;;;;;;;;5113713;28;20115;-87
2021/09/29 10:01:45;;;;;;;4.33;0.83;;;;;;;;;;5115248;28;20020;-87
2021/09/29 10:04:15;;;;;;;4.68;0.80;;;;;;;;;;5108470;28;20031;-85
2021/09/29 10:06:41;;;;;;;3.28;0.82;;;;;;;;;;5106642;28;20048;-86
2021/09/29 10:11:53;;;;;;;2.70;1.02;;;;;;;;;;5104673;28;20028;-84
2021/09/29 10:22:55;;;;;;;3.92;0.98;;;;;;;;;;5104473;28;20349;-85
2021/09/29 10:28:09;;;;;;;5.97;1.15;;;;;;;;;;5105997;28;20054;-83
2021/09/29 10:30:42;;;;;;;5.57;1.00;;;;;;;;;;5105401;28;20170;-86
2021/09/29 10:33:11;;;;;;;4.45;1.20;;;;;;;;;;5107892;28;20031;-86
2021/09/29 10:35:46;;;;;;;4.05;0.90;;;;;;;;;;5105991;28;20024;-83
2021/09/29 10:40:57;;;;;;;2.85;0.90;;;;;;;;;;5100088;28;20024;-85
2021/09/29 11:28:03;;;;;;;3.85;1.13;;;;;;;;;;5097182;28;20508;-84
2021/09/29 11:30:36;;;;;;;4.90;0.93;;;;;;;;;;5097265;28;20327;-84
2021/09/29 11:35:58;;;;;;;4.40;1.00;;;;;;;;;;5096433;28;20119;-81
2021/09/29 11:39:13;;;;;;;2.35;0.82;;;;;;;;;;5095384;28;20099;-81
2021/09/29 12:07:54;;;;;;;3.25;1.20;;;;;;;;;;5096284;28;20429;-81
2021/09/29 12:10:06;;;;;;;5.63;1.10;;;;;;;;;;5095701;28;20059;-82
2021/09/29 12:12:28;;;;;;;3.20;0.85;;;;;;;;;;5095382;28;20036;-84
2021/09/29 12:14:57;;;;;;;4.70;0.70;;;;;;;;;;5097037;28;20024;-82
2021/09/29 12:17:29;;;;;;;3.45;0.70;;;;;;;;;;5096400;28;20024;-82
2021/09/29 12:20:07;;;;;;;3.13;0.82;;;;;;;;;;5095654;28;20119;-83
2021/09/29 12:22:39;;;;;;;2.10;0.60;;;;;;;;;;5095002;28;20024;-81
2021/09/29 12:25:16;;;;;;;3.45;0.70;;;;;;;;;;5096955;28;20027;-81
2021/09/29 12:30:28;;;;;;;3.05;0.80;;;;;;;;;;5096174;28;20054;-81
2021/09/29 12:38:35;;;;;;;4.37;0.70;;;;;;;;;;5097715;28;20043;-81
2021/09/29 12:41:01;;;;;;;4.55;0.60;;;;;;;;;;5101666;28;20024;-81
2021/09/29 12:43:27;;;;;;;7.47;2.40;;;;;;;;;;5095922;28;20020;-82
2021/09/29 12:45:53;;;;;;;4.05;0.85;;;;;;;;;;5099276;28;20047;-83
2021/09/29 12:48:22;;;;;;;3.47;1.00;;;;;;;;;;5100570;28;20057;-84
2021/09/29 12:51:01;;;;;;;4.03;0.70;;;;;;;;;;5096926;28;20296;-83
2021/09/29 12:56:16;;;;;;;2.78;0.90;;;;;;;;;;5099290;28;20037;-83
2021/09/29 12:58:42;;;;;;;4.68;0.90;;;;;;;;;;5095310;28;20086;-83
2021/09/29 13:01:07;;;;;;;2.15;0.60;;;;;;;;;;5095810;28;20024;-82
2021/09/29 13:03:33;;;;;;;3.73;0.73;;;;;;;;;;5094966;28;20039;-82
2021/09/29 13:05:58;;;;;;;2.07;0.57;;;;;;;;;;5095769;28;20448;-81
2021/09/29 13:08:24;;;;;;;3.40;1.30;;;;;;;;;;5096769;28;20382;-83
2021/09/29 13:10:50;;;;;;;2.08;0.70;;;;;;;;;;5096432;28;20036;-85
2021/09/29 13:13:16;;;;;;;3.65;0.90;;;;;;;;;;5096029;28;20040;-85
2021/09/29 13:15:45;;;;;;;6.68;0.93;;;;;;;;;;5095904;28;20113;-83
2021/09/29 13:18:30;;;;;;;4.75;0.90;;;;;;;;;;5096203;28;20094;-82
2021/09/29 13:21:00;;;;;;;2.22;0.52;;;;;;;;;;5097469;28;20024;-84
2021/09/29 13:23:29;;;;;;;5.63;1.10;;;;;;;;;;5099889;28;20028;-82
2021/09/29 13:37:07;;;;;;;3.33;0.52;;;;;;;;;;5038910;28;20490;-83
2021/09/29 13:39:32;;;;;;;1.47;0.50;;;;;;;;;;5082902;28;20032;-84
2021/09/29 13:41:58;;;;;;;2.07;0.33;;;;;;;;;;5100002;28;20035;-83
2021/09/29 13:44:25;;;;;;;4.50;1.00;;;;;;;;;;5100362;28;20477;-83
2021/09/29 13:46:51;;;;;;;1.27;0.40;;;;;;;;;;5099588;28;20126;-81
2021/09/29 13:49:16;;;;;;;4.73;0.60;;;;;;;;;;5099984;28;20060;-85
2021/09/29 13:51:46;;;;;;;1.80;0.40;;;;;;;;;;5100343;28;20024;-81
2021/09/29 13:54:16;;;;;;;3.35;0.70;;;;;;;;;;5100001;28;20028;-82
2021/09/29 13:56:56;;;;;;;2.55;0.50;;;;;;;;;;5100420;28;20407;-83
2021/09/29 13:59:32;;;;;;;1.67;0.55;;;;;;;;;;5099401;28;20103;-84
2021/09/29 14:02:21;;;;;;;3.47;0.50;;;;;;;;;;5099938;28;20094;-83
2021/09/29 14:29:28;;;;;;;1.00;0.30;;;;;;;;;;5098946;28;20038;-82
2021/09/29 14:34:22;;;;;;;2.33;0.50;;;;;;;;;;5098633;28;20024;-82
2021/09/29 14:36:47;;;;;;;0.67;0.33;;;;;;;;;;5097196;28;20089;-82
2021/09/29 14:39:13;;;;;;;2.97;0.50;;;;;;;;;;5098335;28;20063;-82
2021/09/29 14:41:39;;;;;;;1.13;0.30;;;;;;;;;;5097601;28;20097;-80
2021/09/29 14:44:05;;;;;;;1.05;0.40;;;;;;;;;;5098592;28;20027;-81
2021/09/29 14:46:30;;;;;;;1.17;0.40;;;;;;;;;;5096747;28;20075;-82
2021/09/29 14:48:56;;;;;;;2.07;0.43;;;;;;;;;;5097799;28;20494;-80
2021/09/29 14:51:21;;;;;;;2.23;0.40;;;;;;;;;;5098126;28;20046;-81
2021/09/29 14:53:49;;;;;;;1.70;0.50;;;;;;;;;;5097380;28;20465;-81
2021/09/29 14:56:17;;;;;;;1.73;0.40;;;;;;;;;;5097824;28;20042;-79
2021/09/29 14:58:43;;;;;;;1.45;0.50;;;;;;;;;;5097662;28;20024;-80
2021/09/29 15:01:08;;;;;;;0.73;0.32;;;;;;;;;;5096929;28;20081;-82
2021/09/29 15:03:35;;;;;;;0.57;0.30;;;;;;;;;;5097969;28;20028;-82
2021/09/29 15:06:03;;;;;;;0.65;0.50;;;;;;;;;;5096472;28;20487;-82
2021/09/29 15:08:28;;;;;;;1.00;0.40;;;;;;;;;;5099284;28;20465;-82
2021/09/29 15:10:54;;;;;;;0.50;0.33;;;;;;;;;;5099705;28;20020;-80
2021/09/29 15:13:25;;;;;;;7.07;1.60;;;;;;;;;;5099529;28;20442;-81
2021/09/29 15:16:16;;;;;;;0.45;0.20;;;;;;;;;;5097668;28;20032;-81
2021/09/29 15:18:58;;;;;;;2.38;0.38;;;;;;;;;;5096707;28;20528;-82
2021/09/29 15:21:36;;;;;;;1.15;0.30;;;;;;;;;;5096813;28;20036;-80
2021/09/29 15:24:18;;;;;;;0.70;0.30;;;;;;;;;;5096556;28;20024;-79
2021/09/29 15:48:33;;;;;;;3.53;1.15;;;;;;;;;;5096473;28;20546;-82
2021/09/29 15:56:05;;;;;;;0.95;0.35;;;;;;;;;;5096614;28;20020;-79
2021/09/29 15:59:01;;;;;;;1.42;0.50;;;;;;;;;;5095916;28;20028;-80
2021/09/29 16:04:00;;;;;;;2.20;0.70;;;;;;;;;;5096137;28;20024;-82
2021/09/29 16:12:43;;;;;;;1.58;0.57;;;;;;;;;;5096248;28;20124;-81
2021/09/29 16:17:42;;;;;;;1.08;0.50;;;;;;;;;;5079899;28;20032;-81
2021/09/29 16:30:39;;;;;;;2.17;0.85;;;;;;;;;;5095359;28;20042;-80
2021/09/29 16:35:49;;;;;;;1.48;0.50;;;;;;;;;;5095427;28;20115;-81
2021/09/29 16:38:15;;;;;;;1.73;0.65;;;;;;;;;;5095163;28;20103;-81
2021/09/29 16:40:41;;;;;;;2.22;0.60;;;;;;;;;;5095065;28;20049;-80
2021/09/29 16:43:07;;;;;;;1.48;0.50;;;;;;;;;;5095211;28;20024;-80
2021/09/29 16:45:33;;;;;;;0.98;0.43;;;;;;;;;;5095288;28;20027;-81
2021/09/29 16:47:58;;;;;;;3.03;0.50;;;;;;;;;;5094941;28;20066;-81
2021/09/29 16:50:28;;;;;;;2.05;1.13;;;;;;;;;;5094970;28;20108;-81
2021/09/29 16:52:56;;;;;;;1.63;0.50;;;;;;;;;;5095115;28;20059;-80
2021/09/29 16:55:29;;;;;;;2.28;0.65;;;;;;;;;;5100812;28;20034;-81
2021/09/29 16:58:08;;;;;;;4.05;0.70;;;;;;;;;;5100755;28;20355;-81
2021/09/29 17:00:55;;;;;;;0.50;0.43;;;;;;;;;;5102015;28;20016;-80
2021/09/29 17:03:20;;;;;;;0.40;0.30;;;;;;;;;;5102066;28;20038;-81
2021/09/29 17:05:46;;;;;;;1.02;0.50;;;;;;;;;;5101910;28;20020;-81
2021/09/29 17:08:11;;;;;;;3.88;0.73;;;;;;;;;;5101577;28;20469;-82
2021/09/29 17:10:38;;;;;;;2.28;1.10;;;;;;;;;;5101853;28;20459;-81
2021/09/29 17:13:05;;;;;;;2.85;0.60;;;;;;;;;;5100575;28;20505;-79
2021/09/29 17:15:31;;;;;;;3.90;0.60;;;;;;;;;;5101759;28;20043;-80
2021/09/29 17:17:56;;;;;;;1.25;0.68;;;;;;;;;;5101806;28;20081;-82
2021/09/29 17:20:22;;;;;;;1.30;0.70;;;;;;;;;;5101836;28;20358;-83
2021/09/29 17:22:48;;;;;;;1.23;0.50;;;;;;;;;;5101409;28;20028;-82
2021/09/29 17:25:13;;;;;;;0.97;0.40;;;;;;;;;;5101554;28;20031;-79
2021/09/29 17:27:39;;;;;;;1.20;0.38;;;;;;;;;;5101793;28;20115;-80
2021/09/29 17:30:08;;;;;;;2.38;0.50;;;;;;;;;;5101823;28;20036;-81
2021/09/29 17:32:44;;;;;;;0.75;0.43;;;;;;;;;;5101453;28;20100;-81
2021/09/29 17:53:54;;;;;;;1.23;0.50;;;;;;;;;;5101301;28;20081;-81
2021/09/29 17:56:20;;;;;;;3.57;1.03;;;;;;;;;;5101342;28;20032;-83
2021/09/29 17:58:45;;;;;;;1.90;0.57;;;;;;;;;;5101135;28;20103;-81
2021/09/29 18:01:13;;;;;;;1.10;0.60;;;;;;;;;;5101306;28;20364;-84
2021/09/29 18:03:50;;;;;;;1.35;0.55;;;;;;;;;;5101940;28;20032;-80
2021/09/29 18:06:20;;;;;;;2.88;0.70;;;;;;;;;;5099650;28;20032;-82
2021/09/29 18:08:45;;;;;;;2.45;0.73;;;;;;;;;;5099195;28;20327;-82
2021/09/29 18:11:11;;;;;;;3.30;1.10;;;;;;;;;;5099726;28;20035;-81
2021/09/29 18:13:40;;;;;;;0.73;0.50;;;;;;;;;;5097707;28;20016;-80
2021/09/29 18:16:05;;;;;;;0.90;0.50;;;;;;;;;;5097620;28;20353;-80
2021/09/29 18:18:32;;;;;;;3.63;0.70;;;;;;;;;;5099067;28;20019;-82
2021/09/29 18:20:57;;;;;;;2.22;0.80;;;;;;;;;;5098481;28;20031;-80
2021/09/29 18:23:23;;;;;;;2.28;0.60;;;;;;;;;;5098288;28;20354;-82
2021/09/29 18:25:48;;;;;;;0.97;0.47;;;;;;;;;;5099188;28;20318;-80
2021/09/29 18:28:14;;;;;;;1.50;0.80;;;;;;;;;;5098628;28;20089;-81
2021/09/29 18:30:42;;;;;;;1.83;0.47;;;;;;;;;;5098431;28;20074;-82
2021/09/29 18:33:16;;;;;;;1.88;0.80;;;;;;;;;;5097831;28;20024;-81
2021/09/29 18:35:43;;;;;;;0.85;0.57;;;;;;;;;;5097575;28;20058;-81
2021/09/29 18:38:16;;;;;;;1.83;0.93;;;;;;;;;;5097539;28;20020;-79
2021/09/29 18:40:42;;;;;;;1.83;0.70;;;;;;;;;;5096526;28;20024;-81
2021/09/29 18:43:11;;;;;;;2.93;0.87;;;;;;;;;;5097854;28;20032;-81
2021/09/29 18:45:37;;;;;;;2.88;0.77;;;;;;;;;;5097407;28;20258;-80
2021/09/29 18:48:03;;;;;;;1.38;0.73;;;;;;;;;;5097163;28;20480;-83
2021/09/29 18:50:28;;;;;;;2.05;0.70;;;;;;;;;;5096481;28;20473;-81
2021/09/29 18:52:54;;;;;;;2.90;0.87;;;;;;;;;;5097165;28;20035;-82